sensor_id;sensor_type;location;lat;lon;timestamp;temperature;humidity
56234;DHT22;42141;53.240;6.580;2023-02-15T00:01:57;1.30;99.90
56234;DHT22;42141;53.240;6.580;2023-02-15T00:04:24;1.20;99.90
56234;DHT22;42141;53.240;6.580;2023-02-15T00:07:10;2.80;99.90
56234;DHT22;42141;53.240;6.580;2023-02-15T00:09:36;1.20;99.90
56234;DHT22;42141;53.240;6.580;2023-02-15T00:12:02;1.20;99.90
56234;DHT22;42141;53.240;6.580;2023-02-15T00:14:28;1.10;99.90
56234;DHT22;42141;53.240;6.580;2023-02-15T00:16:53;1.10;99.90
56234;DHT22;42141;53.240;6.580;2023-02-15T00:19:21;1.10;99.90
56234;DHT22;42141;53.240;6.580;2023-02-15T00:21:48;1.10;99.90
56234;DHT22;42141;53.240;6.580;2023-02-15T00:24:17;1.10;99.90
56234;DHT22;42141;53.240;6.580;2023-02-15T00:26:43;2.00;99.90
56234;DHT22;42141;53.240;6.580;2023-02-15T00:29:10;1.80;99.90
56234;DHT22;42141;53.240;6.580;2023-02-15T00:31:36;1.00;99.90
56234;DHT22;42141;53.240;6.580;2023-02-15T00:34:10;0.90;99.90
56234;DHT22;42141;53.240;6.580;2023-02-15T00:36:39;2.20;99.90
56234;DHT22;42141;53.240;6.580;2023-02-15T00:39:05;0.90;99.90
56234;DHT22;42141;53.240;6.580;2023-02-15T00:41:32;0.90;99.90
56234;DHT22;42141;53.240;6.580;2023-02-15T00:43:57;0.90;99.90
56234;DHT22;42141;53.240;6.580;2023-02-15T00:46:23;0.90;99.90
56234;DHT22;42141;53.240;6.580;2023-02-15T00:48:49;2.40;99.90
56234;DHT22;42141;53.240;6.580;2023-02-15T00:51:15;1.20;99.90
56234;DHT22;42141;53.240;6.580;2023-02-15T00:53:41;0.80;99.90
56234;DHT22;42141;53.240;6.580;2023-02-15T00:56:07;0.80;99.90
56234;DHT22;42141;53.240;6.580;2023-02-15T00:58:32;0.80;99.90
56234;DHT22;42141;53.240;6.580;2023-02-15T01:01:10;2.20;99.90
56234;DHT22;42141;53.240;6.580;2023-02-15T01:03:36;2.10;99.90
56234;DHT22;42141;53.240;6.580;2023-02-15T01:06:03;0.80;99.90
56234;DHT22;42141;53.240;6.580;2023-02-15T01:08:29;0.80;99.90
56234;DHT22;42141;53.240;6.580;2023-02-15T01:10:55;1.50;99.90
56234;DHT22;42141;53.240;6.580;2023-02-15T01:13:21;0.80;99.90
56234;DHT22;42141;53.240;6.580;2023-02-15T01:15:53;1.40;99.90
56234;DHT22;42141;53.240;6.580;2023-02-15T01:18:20;2.10;99.90
56234;DHT22;42141;53.240;6.580;2023-02-15T01:20:46;0.70;99.90
56234;DHT22;42141;53.240;6.580;2023-02-15T01:23:13;0.70;99.90
56234;DHT22;42141;53.240;6.580;2023-02-15T01:25:38;2.20;99.90
56234;DHT22;42141;53.240;6.580;2023-02-15T01:28:04;0.60;99.90
56234;DHT22;42141;53.240;6.580;2023-02-15T01:30:30;0.60;99.90
56234;DHT22;42141;53.240;6.580;2023-02-15T01:32:56;1.80;99.90
56234;DHT22;42141;53.240;6.580;2023-02-15T01:35:23;0.60;99.90
56234;DHT22;42141;53.240;6.580;2023-02-15T01:37:48;0.60;99.90
56234;DHT22;42141;53.240;6.580;2023-02-15T01:40:16;0.60;99.90
56234;DHT22;42141;53.240;6.580;2023-02-15T01:42:42;0.50;99.90
56234;DHT22;42141;53.240;6.580;2023-02-15T01:45:20;0.50;99.90
56234;DHT22;42141;53.240;6.580;2023-02-15T01:50:32;0.50;99.90
56234;DHT22;42141;53.240;6.580;2023-02-15T01:53:06;0.50;99.90
56234;DHT22;42141;53.240;6.580;2023-02-15T01:55:38;0.40;99.90
56234;DHT22;42141;53.240;6.580;2023-02-15T01:58:05;0.40;99.90
56234;DHT22;42141;53.240;6.580;2023-02-15T02:00:32;1.90;99.90
56234;DHT22;42141;53.240;6.580;2023-02-15T02:03:00;-0.30;99.90
56234;DHT22;42141;53.240;6.580;2023-02-15T02:05:26;0.40;99.90
56234;DHT22;42141;53.240;6.580;2023-02-15T02:07:52;0.40;99.90
56234;DHT22;42141;53.240;6.580;2023-02-15T02:10:23;0.30;99.90
56234;DHT22;42141;53.240;6.580;2023-02-15T02:12:58;0.30;99.90
56234;DHT22;42141;53.240;6.580;2023-02-15T02:24:17;0.30;99.90
56234;DHT22;42141;53.240;6.580;2023-02-15T02:32:58;0.20;99.90
56234;DHT22;42141;53.240;6.580;2023-02-15T02:43:37;0.10;99.90
56234;DHT22;42141;53.240;6.580;2023-02-15T02:48:40;0.10;99.90
56234;DHT22;42141;53.240;6.580;2023-02-15T02:51:06;0.10;99.90
56234;DHT22;42141;53.240;6.580;2023-02-15T02:53:33;0.10;99.90
56234;DHT22;42141;53.240;6.580;2023-02-15T02:56:01;0.00;99.90
56234;DHT22;42141;53.240;6.580;2023-02-15T02:58:40;0.00;99.90
56234;DHT22;42141;53.240;6.580;2023-02-15T03:04:18;0.00;99.90
56234;DHT22;42141;53.240;6.580;2023-02-15T03:06:58;1.60;99.90
56234;DHT22;42141;53.240;6.580;2023-02-15T03:12:45;1.10;99.90
56234;DHT22;42141;53.240;6.580;2023-02-15T03:15:12;-0.10;99.90
56234;DHT22;42141;53.240;6.580;2023-02-15T03:17:43;-0.10;99.90
56234;DHT22;42141;53.240;6.580;2023-02-15T03:20:22;1.50;99.90
56234;DHT22;42141;53.240;6.580;2023-02-15T03:23:12;0.20;99.90
56234;DHT22;42141;53.240;6.580;2023-02-15T03:25:44;-0.10;99.90
56234;DHT22;42141;53.240;6.580;2023-02-15T03:28:13;1.30;99.90
56234;DHT22;42141;53.240;6.580;2023-02-15T03:30:44;-0.10;99.90
56234;DHT22;42141;53.240;6.580;2023-02-15T03:33:12;0.30;99.90
56234;DHT22;42141;53.240;6.580;2023-02-15T03:35:57;-0.20;99.90
56234;DHT22;42141;53.240;6.580;2023-02-15T03:38:44;-0.20;99.90
56234;DHT22;42141;53.240;6.580;2023-02-15T03:41:14;-0.20;99.90
56234;DHT22;42141;53.240;6.580;2023-02-15T03:43:53;-0.20;99.90
56234;DHT22;42141;53.240;6.580;2023-02-15T03:46:37;-0.30;99.90
56234;DHT22;42141;53.240;6.580;2023-02-15T03:49:17;-0.30;99.90
56234;DHT22;42141;53.240;6.580;2023-02-15T03:51:48;-0.30;99.90
56234;DHT22;42141;53.240;6.580;2023-02-15T03:54:21;-0.30;99.90
56234;DHT22;42141;53.240;6.580;2023-02-15T03:57:21;-0.40;99.90
56234;DHT22;42141;53.240;6.580;2023-02-15T04:00:14;-0.40;99.90
56234;DHT22;42141;53.240;6.580;2023-02-15T04:03:29;-0.40;99.90
56234;DHT22;42141;53.240;6.580;2023-02-15T04:05:56;-0.30;99.90
56234;DHT22;42141;53.240;6.580;2023-02-15T04:08:22;-0.30;99.90
56234;DHT22;42141;53.240;6.580;2023-02-15T04:11:08;1.10;99.90
56234;DHT22;42141;53.240;6.580;2023-02-15T04:13:34;-0.40;99.90
56234;DHT22;42141;53.240;6.580;2023-02-15T04:15:59;-0.40;99.90
56234;DHT22;42141;53.240;6.580;2023-02-15T04:18:33;-0.40;99.90
56234;DHT22;42141;53.240;6.580;2023-02-15T04:21:19;0.70;99.90
56234;DHT22;42141;53.240;6.580;2023-02-15T04:24:03;-0.40;99.90
56234;DHT22;42141;53.240;6.580;2023-02-15T04:26:48;-0.40;99.90
56234;DHT22;42141;53.240;6.580;2023-02-15T04:29:15;-0.50;99.90
56234;DHT22;42141;53.240;6.580;2023-02-15T04:31:41;1.20;99.90
56234;DHT22;42141;53.240;6.580;2023-02-15T04:34:08;0.30;99.90
56234;DHT22;42141;53.240;6.580;2023-02-15T04:36:34;-0.50;99.90
56234;DHT22;42141;53.240;6.580;2023-02-15T04:38:59;1.00;99.90
56234;DHT22;42141;53.240;6.580;2023-02-15T04:41:25;-0.50;99.90
56234;DHT22;42141;53.240;6.580;2023-02-15T04:43:51;-0.50;99.90
56234;DHT22;42141;53.240;6.580;2023-02-15T04:46:16;-0.20;99.90
56234;DHT22;42141;53.240;6.580;2023-02-15T04:48:42;-0.50;99.90
56234;DHT22;42141;53.240;6.580;2023-02-15T04:51:09;0.90;99.90
56234;DHT22;42141;53.240;6.580;2023-02-15T04:53:35;-0.50;99.90
56234;DHT22;42141;53.240;6.580;2023-02-15T04:56:01;-0.50;99.90
56234;DHT22;42141;53.240;6.580;2023-02-15T04:58:27;0.70;99.90
56234;DHT22;42141;53.240;6.580;2023-02-15T05:00:56;-0.50;99.90
56234;DHT22;42141;53.240;6.580;2023-02-15T05:03:22;-0.50;99.90
56234;DHT22;42141;53.240;6.580;2023-02-15T05:05:48;-0.50;99.90
56234;DHT22;42141;53.240;6.580;2023-02-15T05:08:14;-0.50;99.90
56234;DHT22;42141;53.240;6.580;2023-02-15T05:10:39;-0.50;99.90
56234;DHT22;42141;53.240;6.580;2023-02-15T05:13:05;-0.50;99.90
56234;DHT22;42141;53.240;6.580;2023-02-15T05:15:31;0.50;99.90
56234;DHT22;42141;53.240;6.580;2023-02-15T05:17:56;1.10;99.90
56234;DHT22;42141;53.240;6.580;2023-02-15T05:20:22;-0.50;99.90
56234;DHT22;42141;53.240;6.580;2023-02-15T05:22:54;-0.50;99.90
56234;DHT22;42141;53.240;6.580;2023-02-15T05:25:20;-0.50;99.90
56234;DHT22;42141;53.240;6.580;2023-02-15T05:28:04;-0.50;99.90
56234;DHT22;42141;53.240;6.580;2023-02-15T05:31:08;1.00;99.90
56234;DHT22;42141;53.240;6.580;2023-02-15T05:33:35;0.40;99.90
56234;DHT22;42141;53.240;6.580;2023-02-15T05:36:07;-0.50;99.90
56234;DHT22;42141;53.240;6.580;2023-02-15T05:38:33;-0.50;99.90
56234;DHT22;42141;53.240;6.580;2023-02-15T05:40:59;0.30;99.90
56234;DHT22;42141;53.240;6.580;2023-02-15T05:43:25;-0.50;99.90
56234;DHT22;42141;53.240;6.580;2023-02-15T05:45:52;-0.50;99.90
56234;DHT22;42141;53.240;6.580;2023-02-15T05:48:20;0.90;99.90
56234;DHT22;42141;53.240;6.580;2023-02-15T05:50:46;1.10;99.90
56234;DHT22;42141;53.240;6.580;2023-02-15T05:53:12;-0.40;99.90
56234;DHT22;42141;53.240;6.580;2023-02-15T05:55:39;-0.40;99.90
56234;DHT22;42141;53.240;6.580;2023-02-15T05:58:05;-0.10;99.90
56234;DHT22;42141;53.240;6.580;2023-02-15T06:00:31;-0.40;99.90
56234;DHT22;42141;53.240;6.580;2023-02-15T06:02:57;0.10;99.90
56234;DHT22;42141;53.240;6.580;2023-02-15T06:05:23;0.80;99.90
56234;DHT22;42141;53.240;6.580;2023-02-15T06:07:48;0.90;99.90
56234;DHT22;42141;53.240;6.580;2023-02-15T06:10:14;-0.50;99.90
56234;DHT22;42141;53.240;6.580;2023-02-15T06:12:40;-0.50;99.90
56234;DHT22;42141;53.240;6.580;2023-02-15T06:15:06;-0.50;99.90
56234;DHT22;42141;53.240;6.580;2023-02-15T06:17:32;-0.50;99.90
56234;DHT22;42141;53.240;6.580;2023-02-15T06:19:57;0.90;99.90
56234;DHT22;42141;53.240;6.580;2023-02-15T06:22:23;-0.50;99.90
56234;DHT22;42141;53.240;6.580;2023-02-15T06:24:49;-0.50;99.90
56234;DHT22;42141;53.240;6.580;2023-02-15T06:27:14;-0.40;99.90
56234;DHT22;42141;53.240;6.580;2023-02-15T06:29:40;-0.50;99.90
56234;DHT22;42141;53.240;6.580;2023-02-15T06:32:06;-0.50;99.90
56234;DHT22;42141;53.240;6.580;2023-02-15T06:34:32;-0.40;99.90
56234;DHT22;42141;53.240;6.580;2023-02-15T06:36:58;-0.40;99.90
56234;DHT22;42141;53.240;6.580;2023-02-15T06:39:23;-0.40;99.90
56234;DHT22;42141;53.240;6.580;2023-02-15T06:41:49;-0.40;99.90
56234;DHT22;42141;53.240;6.580;2023-02-15T06:44:15;-0.30;99.90
56234;DHT22;42141;53.240;6.580;2023-02-15T06:46:41;-0.40;99.90
56234;DHT22;42141;53.240;6.580;2023-02-15T06:49:06;-0.30;99.90
56234;DHT22;42141;53.240;6.580;2023-02-15T06:51:32;-0.30;99.90
56234;DHT22;42141;53.240;6.580;2023-02-15T06:53:59;0.50;99.90
56234;DHT22;42141;53.240;6.580;2023-02-15T06:56:25;-0.30;99.90
56234;DHT22;42141;53.240;6.580;2023-02-15T06:58:51;0.30;99.90
56234;DHT22;42141;53.240;6.580;2023-02-15T07:01:18;-0.30;99.90
56234;DHT22;42141;53.240;6.580;2023-02-15T07:03:44;-0.30;99.90
56234;DHT22;42141;53.240;6.580;2023-02-15T07:06:10;-0.20;99.90
56234;DHT22;42141;53.240;6.580;2023-02-15T07:08:37;-0.20;99.90
56234;DHT22;42141;53.240;6.580;2023-02-15T07:11:03;-0.10;99.90
56234;DHT22;42141;53.240;6.580;2023-02-15T07:13:48;-0.20;99.90
56234;DHT22;42141;53.240;6.580;2023-02-15T07:16:13;-0.10;99.90
56234;DHT22;42141;53.240;6.580;2023-02-15T07:18:39;-0.10;99.90
56234;DHT22;42141;53.240;6.580;2023-02-15T07:21:06;0.00;99.90
56234;DHT22;42141;53.240;6.580;2023-02-15T07:23:36;0.00;99.90
56234;DHT22;42141;53.240;6.580;2023-02-15T07:26:02;-0.90;99.90
56234;DHT22;42141;53.240;6.580;2023-02-15T07:28:28;0.10;99.90
56234;DHT22;42141;53.240;6.580;2023-02-15T07:30:54;1.60;99.90
56234;DHT22;42141;53.240;6.580;2023-02-15T07:33:20;0.70;99.90
56234;DHT22;42141;53.240;6.580;2023-02-15T07:35:53;0.30;99.90
56234;DHT22;42141;53.240;6.580;2023-02-15T07:38:20;0.30;99.90
56234;DHT22;42141;53.240;6.580;2023-02-15T07:40:45;0.40;99.90
56234;DHT22;42141;53.240;6.580;2023-02-15T07:43:11;1.90;99.90
56234;DHT22;42141;53.240;6.580;2023-02-15T07:45:37;1.90;99.90
56234;DHT22;42141;53.240;6.580;2023-02-15T07:48:04;0.60;99.90
56234;DHT22;42141;53.240;6.580;2023-02-15T07:50:30;0.70;99.90
56234;DHT22;42141;53.240;6.580;2023-02-15T07:52:56;0.90;99.90
56234;DHT22;42141;53.240;6.580;2023-02-15T07:55:22;0.90;99.90
56234;DHT22;42141;53.240;6.580;2023-02-15T07:57:49;0.90;99.90
56234;DHT22;42141;53.240;6.580;2023-02-15T08:00:17;1.10;99.90
56234;DHT22;42141;53.240;6.580;2023-02-15T08:02:51;1.10;99.90
56234;DHT22;42141;53.240;6.580;2023-02-15T08:05:38;1.20;99.90
56234;DHT22;42141;53.240;6.580;2023-02-15T08:08:04;2.70;99.90
56234;DHT22;42141;53.240;6.580;2023-02-15T08:10:30;1.40;99.90
56234;DHT22;42141;53.240;6.580;2023-02-15T08:13:14;1.50;99.90
56234;DHT22;42141;53.240;6.580;2023-02-15T08:15:40;2.00;99.90
56234;DHT22;42141;53.240;6.580;2023-02-15T08:18:12;2.80;99.90
56234;DHT22;42141;53.240;6.580;2023-02-15T08:20:38;1.80;99.90
56234;DHT22;42141;53.240;6.580;2023-02-15T08:23:04;3.10;99.90
56234;DHT22;42141;53.240;6.580;2023-02-15T08:25:29;2.10;99.90
56234;DHT22;42141;53.240;6.580;2023-02-15T08:27:55;3.50;99.90
56234;DHT22;42141;53.240;6.580;2023-02-15T08:30:21;3.70;99.90
56234;DHT22;42141;53.240;6.580;2023-02-15T08:32:46;4.10;99.90
56234;DHT22;42141;53.240;6.580;2023-02-15T08:35:12;4.10;99.90
56234;DHT22;42141;53.240;6.580;2023-02-15T08:37:38;2.90;99.90
56234;DHT22;42141;53.240;6.580;2023-02-15T08:40:04;2.90;99.90
56234;DHT22;42141;53.240;6.580;2023-02-15T08:42:32;3.20;99.90
56234;DHT22;42141;53.240;6.580;2023-02-15T08:44:58;3.30;99.90
56234;DHT22;42141;53.240;6.580;2023-02-15T08:47:24;3.40;99.90
56234;DHT22;42141;53.240;6.580;2023-02-15T08:49:50;3.50;99.90
56234;DHT22;42141;53.240;6.580;2023-02-15T08:52:16;4.30;99.90
56234;DHT22;42141;53.240;6.580;2023-02-15T08:54:42;3.70;99.90
56234;DHT22;42141;53.240;6.580;2023-02-15T08:57:09;3.80;99.90
56234;DHT22;42141;53.240;6.580;2023-02-15T08:59:35;3.90;99.90
56234;DHT22;42141;53.240;6.580;2023-02-15T09:02:01;5.30;99.90
56234;DHT22;42141;53.240;6.580;2023-02-15T09:04:28;4.10;99.90
56234;DHT22;42141;53.240;6.580;2023-02-15T09:06:54;4.30;99.90
56234;DHT22;42141;53.240;6.580;2023-02-15T09:09:21;4.80;99.90
56234;DHT22;42141;53.240;6.580;2023-02-15T09:11:49;4.60;99.90
56234;DHT22;42141;53.240;6.580;2023-02-15T09:14:19;5.80;99.90
56234;DHT22;42141;53.240;6.580;2023-02-15T09:16:47;5.60;99.90
56234;DHT22;42141;53.240;6.580;2023-02-15T09:19:19;4.90;99.90
56234;DHT22;42141;53.240;6.580;2023-02-15T09:21:46;5.50;99.90
56234;DHT22;42141;53.240;6.580;2023-02-15T09:24:13;6.40;99.90
56234;DHT22;42141;53.240;6.580;2023-02-15T09:26:43;6.60;99.90
56234;DHT22;42141;53.240;6.580;2023-02-15T09:29:10;5.20;99.90
56234;DHT22;42141;53.240;6.580;2023-02-15T09:31:39;6.80;99.90
56234;DHT22;42141;53.240;6.580;2023-02-15T09:34:06;6.40;99.90
56234;DHT22;42141;53.240;6.580;2023-02-15T09:36:37;5.40;99.90
56234;DHT22;42141;53.240;6.580;2023-02-15T09:39:13;5.50;99.90
56234;DHT22;42141;53.240;6.580;2023-02-15T09:42:02;5.60;99.90
56234;DHT22;42141;53.240;6.580;2023-02-15T09:50:16;5.90;99.90
56234;DHT22;42141;53.240;6.580;2023-02-15T10:01:42;6.50;99.90
56234;DHT22;42141;53.240;6.580;2023-02-15T10:23:28;7.30;99.90
56234;DHT22;42141;53.240;6.580;2023-02-15T10:26:08;7.40;99.90
56234;DHT22;42141;53.240;6.580;2023-02-15T10:28:44;7.50;99.90
56234;DHT22;42141;53.240;6.580;2023-02-15T10:34:12;7.60;99.90
56234;DHT22;42141;53.240;6.580;2023-02-15T10:47:26;8.10;99.90
56234;DHT22;42141;53.240;6.580;2023-02-15T10:55:47;8.40;99.90
56234;DHT22;42141;53.240;6.580;2023-02-15T11:01:57;8.70;99.90
56234;DHT22;42141;53.240;6.580;2023-02-15T11:06:52;9.00;99.90
56234;DHT22;42141;53.240;6.580;2023-02-15T11:09:21;9.20;99.90
56234;DHT22;42141;53.240;6.580;2023-02-15T11:11:53;9.70;99.90
56234;DHT22;42141;53.240;6.580;2023-02-15T11:14:27;9.30;99.90
56234;DHT22;42141;53.240;6.580;2023-02-15T11:17:02;9.30;99.90
56234;DHT22;42141;53.240;6.580;2023-02-15T11:19:37;10.20;99.90
56234;DHT22;42141;53.240;6.580;2023-02-15T11:22:06;9.50;99.90
56234;DHT22;42141;53.240;6.580;2023-02-15T11:24:43;9.50;99.90
56234;DHT22;42141;53.240;6.580;2023-02-15T11:32:35;9.80;99.90
56234;DHT22;42141;53.240;6.580;2023-02-15T11:35:26;9.80;99.90
56234;DHT22;42141;53.240;6.580;2023-02-15T11:43:03;10.70;99.90
56234;DHT22;42141;53.240;6.580;2023-02-15T11:45:31;10.20;99.90
56234;DHT22;42141;53.240;6.580;2023-02-15T11:47:58;10.20;99.90
56234;DHT22;42141;53.240;6.580;2023-02-15T11:50:31;10.30;99.90
56234;DHT22;42141;53.240;6.580;2023-02-15T11:53:03;11.20;99.90
56234;DHT22;42141;53.240;6.580;2023-02-15T11:55:29;10.80;99.90
56234;DHT22;42141;53.240;6.580;2023-02-15T12:00:47;10.60;99.90
56234;DHT22;42141;53.240;6.580;2023-02-15T12:03:34;10.70;99.90
56234;DHT22;42141;53.240;6.580;2023-02-15T12:06:04;10.80;99.90
56234;DHT22;42141;53.240;6.580;2023-02-15T12:08:39;10.90;99.90
56234;DHT22;42141;53.240;6.580;2023-02-15T12:16:22;11.10;99.90
56234;DHT22;42141;53.240;6.580;2023-02-15T12:18:48;12.00;99.90
56234;DHT22;42141;53.240;6.580;2023-02-15T12:21:29;11.30;99.90
56234;DHT22;42141;53.240;6.580;2023-02-15T12:23:58;11.40;99.90
56234;DHT22;42141;53.240;6.580;2023-02-15T12:26:32;11.40;99.90
56234;DHT22;42141;53.240;6.580;2023-02-15T12:29:07;11.50;99.90
56234;DHT22;42141;53.240;6.580;2023-02-15T12:31:44;11.60;99.90
56234;DHT22;42141;53.240;6.580;2023-02-15T12:34:22;11.60;99.90
56234;DHT22;42141;53.240;6.580;2023-02-15T12:36:51;11.60;99.90
56234;DHT22;42141;53.240;6.580;2023-02-15T12:39:30;11.50;99.90
56234;DHT22;42141;53.240;6.580;2023-02-15T12:42:13;11.50;99.90
56234;DHT22;42141;53.240;6.580;2023-02-15T12:44:55;11.60;99.90
56234;DHT22;42141;53.240;6.580;2023-02-15T12:47:21;11.60;99.90
56234;DHT22;42141;53.240;6.580;2023-02-15T12:50:13;11.70;99.90
56234;DHT22;42141;53.240;6.580;2023-02-15T12:52:50;11.80;99.90
56234;DHT22;42141;53.240;6.580;2023-02-15T12:55:25;11.80;99.90
56234;DHT22;42141;53.240;6.580;2023-02-15T12:58:17;11.90;99.90
56234;DHT22;42141;53.240;6.580;2023-02-15T13:00:44;12.00;99.90
56234;DHT22;42141;53.240;6.580;2023-02-15T13:03:21;12.00;99.90
56234;DHT22;42141;53.240;6.580;2023-02-15T13:05:53;12.00;99.90
56234;DHT22;42141;53.240;6.580;2023-02-15T13:08:45;11.90;99.90
56234;DHT22;42141;53.240;6.580;2023-02-15T13:11:12;11.90;99.90
56234;DHT22;42141;53.240;6.580;2023-02-15T13:13:51;11.90;99.90
56234;DHT22;42141;53.240;6.580;2023-02-15T13:16:35;11.90;99.90
56234;DHT22;42141;53.240;6.580;2023-02-15T13:19:33;11.80;99.90
56234;DHT22;42141;53.240;6.580;2023-02-15T13:22:03;11.80;99.90
56234;DHT22;42141;53.240;6.580;2023-02-15T13:27:00;11.70;99.90
56234;DHT22;42141;53.240;6.580;2023-02-15T13:29:33;12.20;99.90
56234;DHT22;42141;53.240;6.580;2023-02-15T13:34:46;11.80;99.90
56234;DHT22;42141;53.240;6.580;2023-02-15T13:40:01;11.90;99.90
56234;DHT22;42141;53.240;6.580;2023-02-15T13:42:40;12.00;99.90
56234;DHT22;42141;53.240;6.580;2023-02-15T13:53:36;12.00;99.90
56234;DHT22;42141;53.240;6.580;2023-02-15T14:12:39;11.80;99.90
56234;DHT22;42141;53.240;6.580;2023-02-15T14:17:42;11.70;99.90
56234;DHT22;42141;53.240;6.580;2023-02-15T14:20:27;12.20;99.90
56234;DHT22;42141;53.240;6.580;2023-02-15T14:22:59;11.70;99.90
56234;DHT22;42141;53.240;6.580;2023-02-15T14:25:35;11.70;99.90
56234;DHT22;42141;53.240;6.580;2023-02-15T14:30:48;11.70;99.90
56234;DHT22;42141;53.240;6.580;2023-02-15T14:35:40;11.60;99.90
56234;DHT22;42141;53.240;6.580;2023-02-15T14:44:38;11.60;99.90
56234;DHT22;42141;53.240;6.580;2023-02-15T14:47:22;11.70;99.90
56234;DHT22;42141;53.240;6.580;2023-02-15T14:49:50;11.70;99.90
56234;DHT22;42141;53.240;6.580;2023-02-15T14:52:16;11.70;99.90
56234;DHT22;42141;53.240;6.580;2023-02-15T15:05:15;11.60;99.90
56234;DHT22;42141;53.240;6.580;2023-02-15T15:07:44;11.50;99.90
56234;DHT22;42141;53.240;6.580;2023-02-15T15:18:03;11.30;99.90
56234;DHT22;42141;53.240;6.580;2023-02-15T15:25:53;11.20;99.90
56234;DHT22;42141;53.240;6.580;2023-02-15T15:31:24;11.00;99.90
56234;DHT22;42141;53.240;6.580;2023-02-15T15:45:27;10.70;99.90
56234;DHT22;42141;53.240;6.580;2023-02-15T15:50:43;10.60;99.90
56234;DHT22;42141;53.240;6.580;2023-02-15T15:53:20;10.50;99.90
56234;DHT22;42141;53.240;6.580;2023-02-15T15:55:49;10.50;99.90
56234;DHT22;42141;53.240;6.580;2023-02-15T15:58:17;10.40;99.90
56234;DHT22;42141;53.240;6.580;2023-02-15T16:03:16;11.30;99.90
56234;DHT22;42141;53.240;6.580;2023-02-15T16:05:45;10.20;99.90
56234;DHT22;42141;53.240;6.580;2023-02-15T16:08:11;10.40;99.90
56234;DHT22;42141;53.240;6.580;2023-02-15T16:10:37;10.10;99.90
56234;DHT22;42141;53.240;6.580;2023-02-15T16:13:05;11.00;99.90
56234;DHT22;42141;53.240;6.580;2023-02-15T16:15:36;10.00;99.90
56234;DHT22;42141;53.240;6.580;2023-02-15T16:18:15;9.90;99.90
56234;DHT22;42141;53.240;6.580;2023-02-15T16:28:58;9.60;99.90
56234;DHT22;42141;53.240;6.580;2023-02-15T16:31:23;9.80;99.90
56234;DHT22;42141;53.240;6.580;2023-02-15T16:33:53;9.50;99.90
56234;DHT22;42141;53.240;6.580;2023-02-15T16:36:24;9.40;99.90
56234;DHT22;42141;53.240;6.580;2023-02-15T16:41:26;9.30;99.90
56234;DHT22;42141;53.240;6.580;2023-02-15T16:43:57;9.20;99.90
56234;DHT22;42141;53.240;6.580;2023-02-15T16:46:30;9.10;99.90
56234;DHT22;42141;53.240;6.580;2023-02-15T16:48:59;9.10;99.90
56234;DHT22;42141;53.240;6.580;2023-02-15T16:51:31;9.10;99.90
56234;DHT22;42141;53.240;6.580;2023-02-15T16:54:05;9.00;99.90
56234;DHT22;42141;53.240;6.580;2023-02-15T16:56:32;9.00;99.90
56234;DHT22;42141;53.240;6.580;2023-02-15T16:58:59;10.00;99.90
56234;DHT22;42141;53.240;6.580;2023-02-15T17:01:30;8.90;99.90
56234;DHT22;42141;53.240;6.580;2023-02-15T17:07:18;8.80;99.90
56234;DHT22;42141;53.240;6.580;2023-02-15T17:09:54;8.80;99.90
56234;DHT22;42141;53.240;6.580;2023-02-15T17:12:46;8.70;99.90
56234;DHT22;42141;53.240;6.580;2023-02-15T17:15:33;8.70;99.90
56234;DHT22;42141;53.240;6.580;2023-02-15T17:18:06;8.70;99.90
56234;DHT22;42141;53.240;6.580;2023-02-15T17:20:36;8.60;99.90
56234;DHT22;42141;53.240;6.580;2023-02-15T17:23:03;9.60;99.90
56234;DHT22;42141;53.240;6.580;2023-02-15T17:25:38;9.20;99.90
56234;DHT22;42141;53.240;6.580;2023-02-15T17:28:05;8.50;99.90
56234;DHT22;42141;53.240;6.580;2023-02-15T17:30:40;8.50;99.90
56234;DHT22;42141;53.240;6.580;2023-02-15T17:33:21;9.20;99.90
56234;DHT22;42141;53.240;6.580;2023-02-15T17:36:13;8.50;99.90
56234;DHT22;42141;53.240;6.580;2023-02-15T17:39:01;8.40;99.90
56234;DHT22;42141;53.240;6.580;2023-02-15T17:41:32;8.40;99.90
56234;DHT22;42141;53.240;6.580;2023-02-15T17:44:00;8.40;99.90
56234;DHT22;42141;53.240;6.580;2023-02-15T17:46:28;8.30;99.90
56234;DHT22;42141;53.240;6.580;2023-02-15T17:48:56;8.30;99.90
56234;DHT22;42141;53.240;6.580;2023-02-15T17:51:22;9.10;99.90
56234;DHT22;42141;53.240;6.580;2023-02-15T17:53:48;8.80;99.90
56234;DHT22;42141;53.240;6.580;2023-02-15T17:56:34;8.30;99.90
56234;DHT22;42141;53.240;6.580;2023-02-15T17:59:01;8.30;99.90
56234;DHT22;42141;53.240;6.580;2023-02-15T18:01:35;8.30;99.90
56234;DHT22;42141;53.240;6.580;2023-02-15T18:04:20;8.40;99.90
56234;DHT22;42141;53.240;6.580;2023-02-15T18:07:04;8.30;99.90
56234;DHT22;42141;53.240;6.580;2023-02-15T18:09:49;8.30;99.90
56234;DHT22;42141;53.240;6.580;2023-02-15T18:12:34;8.30;99.90
56234;DHT22;42141;53.240;6.580;2023-02-15T18:15:05;8.10;99.90
56234;DHT22;42141;53.240;6.580;2023-02-15T18:17:37;8.30;99.90
56234;DHT22;42141;53.240;6.580;2023-02-15T18:20:09;8.30;99.90
56234;DHT22;42141;53.240;6.580;2023-02-15T18:22:36;8.20;99.90
56234;DHT22;42141;53.240;6.580;2023-02-15T18:25:02;8.20;99.90
56234;DHT22;42141;53.240;6.580;2023-02-15T18:27:28;8.10;99.90
56234;DHT22;42141;53.240;6.580;2023-02-15T18:29:54;8.90;99.90
56234;DHT22;42141;53.240;6.580;2023-02-15T18:32:30;8.10;99.90
56234;DHT22;42141;53.240;6.580;2023-02-15T18:34:57;8.10;99.90
56234;DHT22;42141;53.240;6.580;2023-02-15T18:37:29;8.10;99.90
56234;DHT22;42141;53.240;6.580;2023-02-15T18:39:58;8.00;99.90
56234;DHT22;42141;53.240;6.580;2023-02-15T18:42:27;8.00;99.90
56234;DHT22;42141;53.240;6.580;2023-02-15T18:45:20;8.10;99.90
56234;DHT22;42141;53.240;6.580;2023-02-15T18:47:48;8.00;99.90
56234;DHT22;42141;53.240;6.580;2023-02-15T18:50:15;8.00;99.90
56234;DHT22;42141;53.240;6.580;2023-02-15T18:52:44;7.90;99.90
56234;DHT22;42141;53.240;6.580;2023-02-15T18:55:26;8.10;99.90
56234;DHT22;42141;53.240;6.580;2023-02-15T18:57:55;7.90;99.90
56234;DHT22;42141;53.240;6.580;2023-02-15T19:00:22;7.90;99.90
56234;DHT22;42141;53.240;6.580;2023-02-15T19:02:49;7.90;99.90
56234;DHT22;42141;53.240;6.580;2023-02-15T19:05:16;8.60;99.90
56234;DHT22;42141;53.240;6.580;2023-02-15T19:07:43;8.40;99.90
56234;DHT22;42141;53.240;6.580;2023-02-15T19:10:15;9.00;99.90
56234;DHT22;42141;53.240;6.580;2023-02-15T19:12:42;7.80;99.90
56234;DHT22;42141;53.240;6.580;2023-02-15T19:15:19;7.80;99.90
56234;DHT22;42141;53.240;6.580;2023-02-15T19:17:45;7.80;99.90
56234;DHT22;42141;53.240;6.580;2023-02-15T19:20:28;7.80;99.90
56234;DHT22;42141;53.240;6.580;2023-02-15T19:22:55;7.70;99.90
56234;DHT22;42141;53.240;6.580;2023-02-15T19:25:24;8.80;99.90
56234;DHT22;42141;53.240;6.580;2023-02-15T19:27:51;8.70;99.90
56234;DHT22;42141;53.240;6.580;2023-02-15T19:30:21;7.70;99.90
56234;DHT22;42141;53.240;6.580;2023-02-15T19:32:48;7.70;99.90
56234;DHT22;42141;53.240;6.580;2023-02-15T19:35:16;7.70;99.90
56234;DHT22;42141;53.240;6.580;2023-02-15T19:37:47;7.60;99.90
56234;DHT22;42141;53.240;6.580;2023-02-15T19:40:30;9.10;99.90